Time;durP1;ratioP1;P1;durP2;ratioP2;P2;SDS_P1;SDS_P2;PMS_P1;PMS_P2;Temp;Humidity;BMP_temperature;BMP_pressure;BME280_temperature;BME280_humidity;BME280_pressure;Samples;Min_cycle;Max_cycle;Signal;HPM_P1;HPM_P2
2021/11/23 00:01:36;;;;;;;135.48;61.40;;;;;;;;;;6280855;22;20003;-77
2021/11/23 00:04:04;;;;;;;140.90;58.80;;;;;;;;;;6281587;22;20086;-77
2021/11/23 00:06:34;;;;;;;143.57;61.92;;;;;;;;;;6281757;22;20015;-76
2021/11/23 00:09:00;;;;;;;135.00;60.75;;;;;;;;;;6308425;22;20014;-77
2021/11/23 00:11:31;;;;;;;136.95;60.88;;;;;;;;;;6308118;22;20386;-77
2021/11/23 00:14:00;;;;;;;142.43;62.10;;;;;;;;;;6281043;22;20007;-76
2021/11/23 00:16:29;;;;;;;125.28;59.10;;;;;;;;;;6280958;22;20074;-76
2021/11/23 00:18:57;;;;;;;124.97;60.22;;;;;;;;;;6308527;22;19999;-76
2021/11/23 00:21:29;;;;;;;127.88;60.17;;;;;;;;;;6308135;22;19999;-76
2021/11/23 00:24:03;;;;;;;127.82;60.47;;;;;;;;;;6284687;22;20004;-76
2021/11/23 00:26:29;;;;;;;123.72;58.92;;;;;;;;;;6308620;22;19995;-77
2021/11/23 00:29:00;;;;;;;112.53;58.25;;;;;;;;;;6308996;22;20003;-77
2021/11/23 00:31:32;;;;;;;113.97;57.45;;;;;;;;;;6308590;22;20007;-76
2021/11/23 00:34:02;;;;;;;111.40;57.40;;;;;;;;;;6308294;22;20019;-77
2021/11/23 00:36:32;;;;;;;107.68;56.90;;;;;;;;;;6279911;22;20019;-76
2021/11/23 00:38:58;;;;;;;123.30;60.05;;;;;;;;;;6280570;22;20029;-76
2021/11/23 00:41:27;;;;;;;108.75;55.60;;;;;;;;;;6307966;22;20073;-77
2021/11/23 00:43:55;;;;;;;124.70;60.45;;;;;;;;;;6284715;22;20057;-76
2021/11/23 00:46:24;;;;;;;107.75;56.85;;;;;;;;;;6308868;22;20070;-76
2021/11/23 00:48:54;;;;;;;105.68;54.58;;;;;;;;;;6309661;22;20004;-77
2021/11/23 00:51:21;;;;;;;106.78;56.80;;;;;;;;;;6281640;22;20333;-76
2021/11/23 00:53:52;;;;;;;110.78;57.08;;;;;;;;;;6309029;22;20072;-77
2021/11/23 00:56:19;;;;;;;96.32;54.45;;;;;;;;;;6307535;22;20000;-77
2021/11/23 00:58:52;;;;;;;101.03;55.50;;;;;;;;;;6310257;22;20001;-77
2021/11/23 01:01:22;;;;;;;105.60;57.53;;;;;;;;;;6280719;22;20002;-76
2021/11/23 01:03:53;;;;;;;101.28;54.95;;;;;;;;;;6285087;22;20015;-76
2021/11/23 01:06:23;;;;;;;94.60;54.60;;;;;;;;;;6281193;22;20090;-76
2021/11/23 01:08:52;;;;;;;106.85;55.60;;;;;;;;;;6281288;22;20014;-76
2021/11/23 01:11:24;;;;;;;94.82;53.72;;;;;;;;;;6281910;22;20321;-76
2021/11/23 01:13:54;;;;;;;97.50;54.08;;;;;;;;;;6308736;22;20010;-77
2021/11/23 01:16:25;;;;;;;95.10;52.65;;;;;;;;;;6281340;22;20322;-77
2021/11/23 01:18:54;;;;;;;93.80;50.45;;;;;;;;;;6286322;22;20006;-77
2021/11/23 01:21:22;;;;;;;98.07;53.80;;;;;;;;;;6308979;22;19996;-77
2021/11/23 01:23:56;;;;;;;91.45;53.70;;;;;;;;;;6281421;22;20048;-77
2021/11/23 01:26:25;;;;;;;90.60;53.00;;;;;;;;;;6282034;22;20060;-77
2021/11/23 01:28:52;;;;;;;102.47;53.92;;;;;;;;;;6307042;22;20003;-77
2021/11/23 01:31:22;;;;;;;99.40;54.05;;;;;;;;;;6307871;22;20042;-76
2021/11/23 01:33:48;;;;;;;94.80;53.10;;;;;;;;;;6307683;22;20074;-77
2021/11/23 01:36:18;;;;;;;94.93;52.95;;;;;;;;;;6312050;22;20019;-77
2021/11/23 01:38:46;;;;;;;99.00;53.55;;;;;;;;;;6308087;22;20003;-76
2021/11/23 01:41:16;;;;;;;106.95;55.67;;;;;;;;;;6307555;22;20006;-76
2021/11/23 01:43:43;;;;;;;98.88;54.30;;;;;;;;;;6307065;22;20000;-77
2021/11/23 01:46:11;;;;;;;104.65;55.70;;;;;;;;;;6312193;22;20004;-77
2021/11/23 01:48:39;;;;;;;104.68;56.13;;;;;;;;;;6307693;22;20352;-77
2021/11/23 01:51:05;;;;;;;92.60;52.42;;;;;;;;;;6279922;22;20371;-77
2021/11/23 01:53:37;;;;;;;97.15;53.35;;;;;;;;;;6282377;22;20004;-77
2021/11/23 01:56:09;;;;;;;107.75;56.80;;;;;;;;;;6317599;22;20070;-77
2021/11/23 01:58:38;;;;;;;99.75;53.15;;;;;;;;;;6283102;22;20057;-77
2021/11/23 02:01:06;;;;;;;103.07;55.08;;;;;;;;;;6309383;22;20003;-77
2021/11/23 02:03:33;;;;;;;97.97;52.63;;;;;;;;;;6310723;22;20061;-77
2021/11/23 02:08:53;;;;;;;;;;;;;;;;;;6309904;22;20011;-77
2021/11/23 02:11:26;;;;;;;88.35;50.17;;;;;;;;;;6287766;22;19903;-77
2021/11/23 02:14:04;;;;;;;104.55;54.95;;;;;;;;;;6310050;22;20356;-77
2021/11/23 02:16:33;;;;;;;93.22;51.55;;;;;;;;;;6282427;22;20012;-76
2021/11/23 02:19:00;;;;;;;93.80;51.53;;;;;;;;;;6291607;22;19999;-77
2021/11/23 02:21:26;;;;;;;97.88;52.55;;;;;;;;;;6280965;22;20007;-77
2021/11/23 02:23:55;;;;;;;89.22;50.67;;;;;;;;;;6309711;22;20062;-76
2021/11/23 02:26:21;;;;;;;90.80;51.85;;;;;;;;;;6308767;22;20074;-76
2021/11/23 02:28:53;;;;;;;101.82;54.10;;;;;;;;;;6309255;22;20003;-76
2021/11/23 02:31:21;;;;;;;96.93;52.78;;;;;;;;;;6309334;22;20007;-76
2021/11/23 02:33:50;;;;;;;86.38;50.33;;;;;;;;;;6309120;22;20002;-77
2021/11/23 02:36:19;;;;;;;109.57;53.85;;;;;;;;;;6308627;22;20015;-77
2021/11/23 02:38:50;;;;;;;86.15;50.08;;;;;;;;;;6311917;22;20000;-76
2021/11/23 02:41:17;;;;;;;91.95;52.40;;;;;;;;;;6308653;22;20425;-76
2021/11/23 02:43:43;;;;;;;90.20;51.03;;;;;;;;;;6309669;22;20003;-76
2021/11/23 02:46:10;;;;;;;98.38;51.88;;;;;;;;;;6282271;22;20003;-76
2021/11/23 02:48:37;;;;;;;90.85;50.55;;;;;;;;;;6308566;22;20035;-77
2021/11/23 02:51:15;;;;;;;85.78;49.97;;;;;;;;;;6289747;22;20020;-76
2021/11/23 02:53:49;;;;;;;91.93;50.72;;;;;;;;;;6281668;22;20082;-76
2021/11/23 02:56:16;;;;;;;84.85;49.78;;;;;;;;;;6309396;22;20004;-77
2021/11/23 02:58:50;;;;;;;93.30;51.78;;;;;;;;;;6308849;22;20006;-76
2021/11/23 03:01:20;;;;;;;97.75;52.80;;;;;;;;;;6307607;22;20022;-77
2021/11/23 03:03:46;;;;;;;92.00;52.72;;;;;;;;;;6309485;22;20409;-76
2021/11/23 03:06:16;;;;;;;97.82;54.50;;;;;;;;;;6310075;22;19999;-76
2021/11/23 03:08:42;;;;;;;110.18;55.88;;;;;;;;;;6309190;22;19999;-77
2021/11/23 03:11:10;;;;;;;102.65;54.13;;;;;;;;;;6312091;22;20424;-76
2021/11/23 03:13:36;;;;;;;104.25;55.20;;;;;;;;;;6308026;22;20002;-77
2021/11/23 03:16:05;;;;;;;103.65;55.67;;;;;;;;;;6309864;22;20026;-77
2021/11/23 03:18:33;;;;;;;100.32;55.20;;;;;;;;;;6281121;22;20322;-77
2021/11/23 03:20:59;;;;;;;106.32;54.28;;;;;;;;;;6308908;22;20025;-76
2021/11/23 03:23:27;;;;;;;115.43;57.13;;;;;;;;;;6289918;22;19999;-77
2021/11/23 03:25:55;;;;;;;91.95;52.88;;;;;;;;;;6280900;22;20003;-77
2021/11/23 03:28:22;;;;;;;96.13;53.30;;;;;;;;;;6308352;22;20073;-77
2021/11/23 03:30:50;;;;;;;99.68;52.22;;;;;;;;;;6313205;22;20436;-77
2021/11/23 03:33:19;;;;;;;91.00;53.20;;;;;;;;;;6309237;22;19999;-76
2021/11/23 03:35:45;;;;;;;99.25;55.17;;;;;;;;;;6308172;22;20011;-76
2021/11/23 03:38:14;;;;;;;100.38;53.22;;;;;;;;;;6308894;22;20006;-76
2021/11/23 03:40:43;;;;;;;98.63;53.28;;;;;;;;;;6281178;22;20003;-77
2021/11/23 03:43:12;;;;;;;96.97;53.22;;;;;;;;;;6281101;22;20003;-76
2021/11/23 03:45:40;;;;;;;94.70;52.67;;;;;;;;;;6310890;22;20031;-76
2021/11/23 03:48:06;;;;;;;103.90;54.35;;;;;;;;;;6283512;22;20008;-77
2021/11/23 03:50:34;;;;;;;107.88;56.53;;;;;;;;;;6318234;22;20535;-77
2021/11/23 03:53:03;;;;;;;107.78;56.85;;;;;;;;;;6310047;22;20059;-77
2021/11/23 03:55:37;;;;;;;103.13;56.50;;;;;;;;;;6312270;22;20007;-77
2021/11/23 03:58:09;;;;;;;106.13;55.15;;;;;;;;;;6282201;22;20069;-76
2021/11/23 04:00:35;;;;;;;107.30;56.38;;;;;;;;;;6281093;22;20042;-76
2021/11/23 04:03:01;;;;;;;100.35;53.70;;;;;;;;;;6308771;22;20052;-76
2021/11/23 04:05:29;;;;;;;106.30;55.85;;;;;;;;;;6280923;22;20007;-76
2021/11/23 04:07:55;;;;;;;116.75;58.67;;;;;;;;;;6282809;22;20007;-76
2021/11/23 04:10:26;;;;;;;105.38;55.45;;;;;;;;;;6309491;22;20011;-77
2021/11/23 04:12:52;;;;;;;107.50;56.58;;;;;;;;;;6308374;22;19999;-76
2021/11/23 04:15:18;;;;;;;123.80;57.33;;;;;;;;;;6308403;22;20013;-76
2021/11/23 04:17:44;;;;;;;117.90;58.25;;;;;;;;;;6309485;22;20007;-76
2021/11/23 04:20:11;;;;;;;119.38;58.95;;;;;;;;;;6309060;22;20026;-76
2021/11/23 04:22:38;;;;;;;109.57;56.88;;;;;;;;;;6308753;22;20045;-76
2021/11/23 04:25:05;;;;;;;133.68;59.08;;;;;;;;;;6282442;22;20007;-76
2021/11/23 04:27:33;;;;;;;122.03;58.88;;;;;;;;;;6280930;22;20007;-76
2021/11/23 04:29:59;;;;;;;106.82;56.38;;;;;;;;;;6281893;22;20449;-76
2021/11/23 04:32:25;;;;;;;114.82;55.85;;;;;;;;;;6307892;22;19999;-76
2021/11/23 04:34:51;;;;;;;123.63;58.20;;;;;;;;;;6281191;22;20011;-76
2021/11/23 04:37:17;;;;;;;114.03;55.92;;;;;;;;;;6308459;22;20010;-75
2021/11/23 04:39:49;;;;;;;103.93;55.45;;;;;;;;;;6308255;22;20026;-76
2021/11/23 04:42:15;;;;;;;104.32;53.75;;;;;;;;;;6307665;22;20007;-76
2021/11/23 04:44:41;;;;;;;113.95;56.45;;;;;;;;;;6307677;22;20010;-76
2021/11/23 04:47:08;;;;;;;113.55;54.97;;;;;;;;;;6281437;22;20373;-76
2021/11/23 04:49:34;;;;;;;115.15;56.22;;;;;;;;;;6280759;22;20068;-76
2021/11/23 04:52:02;;;;;;;124.43;59.55;;;;;;;;;;6280364;22;20310;-76
2021/11/23 04:54:28;;;;;;;106.05;54.88;;;;;;;;;;6308741;22;19996;-76
2021/11/23 04:56:57;;;;;;;105.50;55.75;;;;;;;;;;6308548;22;20030;-77
2021/11/23 04:59:23;;;;;;;115.45;56.17;;;;;;;;;;6281148;22;20322;-76
2021/11/23 05:01:49;;;;;;;120.45;59.63;;;;;;;;;;6243765;22;20015;-76
2021/11/23 05:04:21;;;;;;;126.95;59.70;;;;;;;;;;6243538;23;20446;-76
2021/11/23 05:06:47;;;;;;;122.30;58.20;;;;;;;;;;6245085;23;20008;-77
2021/11/23 05:09:13;;;;;;;126.25;60.30;;;;;;;;;;6243937;23;20018;-77
2021/11/23 05:11:43;;;;;;;132.77;60.38;;;;;;;;;;6243975;23;20088;-76
2021/11/23 05:14:09;;;;;;;131.45;60.60;;;;;;;;;;6243413;22;20328;-76
2021/11/23 05:16:38;;;;;;;135.45;59.38;;;;;;;;;;6243517;23;20008;-76
2021/11/23 05:19:09;;;;;;;125.32;59.67;;;;;;;;;;6244203;23;20012;-76
2021/11/23 05:21:35;;;;;;;110.75;55.70;;;;;;;;;;6244439;23;20000;-76
2021/11/23 05:24:09;;;;;;;121.88;58.15;;;;;;;;;;6244143;23;20052;-77
2021/11/23 05:26:35;;;;;;;124.60;58.90;;;;;;;;;;6247056;22;20027;-76
2021/11/23 05:29:01;;;;;;;106.68;54.42;;;;;;;;;;6245927;23;20004;-77
2021/11/23 05:31:27;;;;;;;111.88;57.90;;;;;;;;;;6247698;23;20008;-77
2021/11/23 05:34:02;;;;;;;132.82;61.38;;;;;;;;;;6306261;22;20003;-77
2021/11/23 05:36:28;;;;;;;120.38;56.08;;;;;;;;;;6311130;22;20011;-76
2021/11/23 05:38:54;;;;;;;113.25;56.70;;;;;;;;;;6309978;22;20449;-76
2021/11/23 05:41:25;;;;;;;106.00;53.80;;;;;;;;;;6311902;22;20051;-76
2021/11/23 05:43:55;;;;;;;116.57;58.78;;;;;;;;;;6310047;22;19995;-76
2021/11/23 05:46:21;;;;;;;122.13;57.47;;;;;;;;;;6281369;22;20007;-76
2021/11/23 05:48:52;;;;;;;116.32;57.28;;;;;;;;;;6309388;22;20003;-77
2021/11/23 05:51:24;;;;;;;119.70;57.97;;;;;;;;;;6309667;22;20011;-77
2021/11/23 05:53:51;;;;;;;120.05;56.00;;;;;;;;;;6312009;22;20414;-75
2021/11/23 05:56:17;;;;;;;119.88;56.08;;;;;;;;;;6307898;22;20007;-76
2021/11/23 05:58:43;;;;;;;109.82;55.03;;;;;;;;;;6308577;22;20074;-76
2021/11/23 06:01:12;;;;;;;119.70;56.92;;;;;;;;;;6313931;22;19999;-76
2021/11/23 06:03:38;;;;;;;102.93;53.05;;;;;;;;;;6311402;22;20013;-78
2021/11/23 06:06:21;;;;;;;124.55;55.17;;;;;;;;;;6288742;22;20444;-79
2021/11/23 06:08:48;;;;;;;111.77;53.60;;;;;;;;;;6325201;22;19992;-79
2021/11/23 06:11:17;;;;;;;127.85;57.35;;;;;;;;;;6291159;22;20260;-78
2021/11/23 06:13:44;;;;;;;125.15;56.67;;;;;;;;;;6284997;22;20413;-75
2021/11/23 06:18:59;;;;;;;87.53;46.75;;;;;;;;;;6213754;23;20154;-75
2021/11/23 06:21:26;;;;;;;92.63;47.45;;;;;;;;;;6214365;23;20004;-75
2021/11/23 06:23:57;;;;;;;86.53;48.03;;;;;;;;;;6220439;23;20034;-78
2021/11/23 06:26:23;;;;;;;88.03;47.75;;;;;;;;;;6222083;23;20012;-76
2021/11/23 06:28:52;;;;;;;80.32;44.80;;;;;;;;;;6229825;23;20005;-79
2021/11/23 06:31:33;;;;;;;81.07;45.72;;;;;;;;;;6239774;23;20012;-79
2021/11/23 06:38:12;;;;;;;87.55;51.35;;;;;;;;;;6178767;23;20057;-78
2021/11/23 06:51:04;;;;;;;78.82;49.90;;;;;;;;;;6148392;23;20029;-77
2021/11/23 07:09:32;;;;;;;72.82;44.65;;;;;;;;;;6348873;22;20038;-77
2021/11/23 07:11:58;;;;;;;77.88;46.83;;;;;;;;;;6330292;22;20063;-76
2021/11/23 07:14:24;;;;;;;72.00;45.38;;;;;;;;;;6324884;22;19999;-75
2021/11/23 07:16:51;;;;;;;84.80;48.50;;;;;;;;;;6295614;22;20011;-75
2021/11/23 07:19:17;;;;;;;73.97;44.42;;;;;;;;;;6282375;22;20445;-76
2021/11/23 07:21:44;;;;;;;72.22;45.70;;;;;;;;;;6280598;22;20000;-76
2021/11/23 07:24:10;;;;;;;83.57;47.22;;;;;;;;;;6280503;22;20008;-77
2021/11/23 07:26:48;;;;;;;80.05;47.08;;;;;;;;;;6292642;22;20004;-79
2021/11/23 07:29:24;;;;;;;78.05;44.40;;;;;;;;;;6239414;23;20024;-81
2021/11/23 07:31:51;;;;;;;74.88;44.53;;;;;;;;;;6239900;23;20009;-80
2021/11/23 07:34:17;;;;;;;64.63;40.35;;;;;;;;;;6208629;23;20031;-79
2021/11/23 07:36:43;;;;;;;73.50;45.15;;;;;;;;;;6225311;23;19996;-76
2021/11/23 07:39:09;;;;;;;62.38;39.90;;;;;;;;;;6224236;23;20032;-75
2021/11/23 07:41:36;;;;;;;65.22;41.63;;;;;;;;;;6216340;23;20012;-75
2021/11/23 07:44:03;;;;;;;63.10;39.33;;;;;;;;;;6216302;23;20055;-76
2021/11/23 07:46:29;;;;;;;57.90;36.42;;;;;;;;;;6217702;23;20051;-75
2021/11/23 07:48:55;;;;;;;49.55;32.70;;;;;;;;;;6244973;23;20000;-74
2021/11/23 07:51:22;;;;;;;46.75;29.83;;;;;;;;;;6220833;23;20004;-75
2021/11/23 07:53:48;;;;;;;49.30;29.55;;;;;;;;;;6246899;23;20001;-74
2021/11/23 07:56:14;;;;;;;46.40;29.40;;;;;;;;;;6246454;23;20004;-75
2021/11/23 07:58:41;;;;;;;43.15;28.45;;;;;;;;;;6247855;23;20448;-76
2021/11/23 08:01:07;;;;;;;43.60;28.35;;;;;;;;;;6303197;22;20007;-76
2021/11/23 08:03:42;;;;;;;44.78;28.10;;;;;;;;;;6355789;22;20396;-72
2021/11/23 08:06:30;;;;;;;44.50;29.45;;;;;;;;;;6221729;22;19995;-72
2021/11/23 08:08:56;;;;;;;51.63;34.75;;;;;;;;;;6262078;23;20055;-72
2021/11/23 08:11:23;;;;;;;50.25;28.67;;;;;;;;;;6220572;23;20473;-73
2021/11/23 08:13:49;;;;;;;47.83;29.92;;;;;;;;;;6245009;23;20000;-74
2021/11/23 08:16:15;;;;;;;43.83;28.60;;;;;;;;;;6245734;23;20303;-75
2021/11/23 08:18:42;;;;;;;42.95;26.20;;;;;;;;;;6226673;23;20068;-76
2021/11/23 08:21:14;;;;;;;44.45;28.70;;;;;;;;;;6235560;23;20022;-72
2021/11/23 08:23:40;;;;;;;44.10;27.80;;;;;;;;;;6221671;23;20043;-75
2021/11/23 08:26:06;;;;;;;46.35;28.55;;;;;;;;;;6245061;23;20004;-74
2021/11/23 08:28:37;;;;;;;42.83;26.90;;;;;;;;;;6244358;23;20007;-74
2021/11/23 08:31:03;;;;;;;46.13;28.65;;;;;;;;;;6328611;22;20050;-79
2021/11/23 08:33:49;;;;;;;;;;;;;;;;;;;;;
2021/11/23 08:36:17;;;;;;;42.92;28.83;;;;;;;;;;6271056;22;20025;-77
2021/11/23 08:38:46;;;;;;;43.58;27.23;;;;;;;;;;6327229;22;20014;-78
2021/11/23 08:41:14;;;;;;;44.50;29.30;;;;;;;;;;6358415;22;20428;-75
2021/11/23 08:43:41;;;;;;;42.30;27.75;;;;;;;;;;6333459;22;20028;-76
2021/11/23 08:46:09;;;;;;;42.47;28.52;;;;;;;;;;6353389;22;20002;-72
2021/11/23 08:48:38;;;;;;;42.90;28.02;;;;;;;;;;6352616;22;20010;-74
2021/11/23 08:51:10;;;;;;;46.72;29.40;;;;;;;;;;6355289;22;20007;-72
2021/11/23 08:53:41;;;;;;;47.05;29.50;;;;;;;;;;6354036;22;20790;-75
2021/11/23 08:56:13;;;;;;;53.50;30.60;;;;;;;;;;6355840;22;20363;-75
2021/11/23 08:58:40;;;;;;;48.85;30.40;;;;;;;;;;6364134;22;20460;-73
2021/11/23 09:01:47;;;;;;;;;;;;;;;;;;;;;
2021/11/23 09:04:27;;;;;;;46.70;30.10;;;;;;;;;;6282531;22;19999;-77
2021/11/23 09:07:06;;;;;;;46.85;30.52;;;;;;;;;;6361316;22;20013;-75
2021/11/23 09:09:35;;;;;;;49.17;29.95;;;;;;;;;;6357020;22;20007;-76
2021/11/23 09:12:03;;;;;;;47.25;30.75;;;;;;;;;;6320438;22;20034;-71
2021/11/23 09:14:43;;;;;;;43.33;28.98;;;;;;;;;;6314317;22;20007;-76
2021/11/23 09:17:14;;;;;;;41.13;29.10;;;;;;;;;;6310778;22;20077;-77
2021/11/23 09:19:41;;;;;;;45.05;27.60;;;;;;;;;;6361360;22;20007;-80
2021/11/23 09:22:07;;;;;;;45.08;28.40;;;;;;;;;;6335035;22;20440;-76
2021/11/23 09:24:33;;;;;;;40.13;26.67;;;;;;;;;;6362333;22;19990;-77
2021/11/23 09:26:59;;;;;;;43.75;27.77;;;;;;;;;;6360605;22;20003;-76
2021/11/23 09:29:26;;;;;;;46.58;26.77;;;;;;;;;;6359694;22;20010;-76
2021/11/23 09:31:52;;;;;;;27.08;18.05;;;;;;;;;;6359327;22;20003;-76
2021/11/23 09:34:20;;;;;;;31.50;18.77;;;;;;;;;;6353032;22;20003;-75
2021/11/23 09:37:13;;;;;;;21.83;15.43;;;;;;;;;;6355060;22;19999;-72
2021/11/23 09:40:03;;;;;;;26.85;14.48;;;;;;;;;;6356868;22;20018;-72
2021/11/23 09:42:34;;;;;;;21.77;14.57;;;;;;;;;;6327011;22;20006;-73
2021/11/23 09:45:04;;;;;;;25.65;14.40;;;;;;;;;;6339271;22;20052;-73
2021/11/23 09:47:30;;;;;;;20.73;13.75;;;;;;;;;;6345391;22;19999;-75
2021/11/23 09:50:00;;;;;;;27.67;16.73;;;;;;;;;;6344236;22;20022;-76
2021/11/23 09:52:26;;;;;;;23.05;14.20;;;;;;;;;;6343161;22;20014;-76
2021/11/23 09:54:55;;;;;;;19.33;13.75;;;;;;;;;;6342405;22;20076;-76
2021/11/23 09:57:21;;;;;;;18.17;12.63;;;;;;;;;;6344104;22;20010;-76
2021/11/23 09:59:48;;;;;;;18.02;12.55;;;;;;;;;;6345842;22;20317;-76
2021/11/23 10:02:23;;;;;;;18.55;13.70;;;;;;;;;;6316395;22;20003;-76
2021/11/23 10:04:56;;;;;;;24.98;14.27;;;;;;;;;;6341572;22;20003;-75
2021/11/23 10:07:33;;;;;;;17.75;13.48;;;;;;;;;;6343923;22;20023;-75
2021/11/23 10:10:09;;;;;;;18.88;12.32;;;;;;;;;;6343503;22;20030;-75
2021/11/23 10:12:35;;;;;;;16.98;13.02;;;;;;;;;;6343142;22;20367;-76
2021/11/23 10:15:15;;;;;;;22.23;12.93;;;;;;;;;;6344202;22;19998;-75
2021/11/23 10:17:43;;;;;;;19.13;13.68;;;;;;;;;;6347905;22;20073;-76
2021/11/23 10:20:30;;;;;;;19.98;13.50;;;;;;;;;;6352503;22;20529;-78
2021/11/23 10:23:11;;;;;;;22.23;13.77;;;;;;;;;;6201886;23;20012;-73
2021/11/23 10:25:40;;;;;;;24.25;12.77;;;;;;;;;;6229048;23;20073;-78
2021/11/23 10:28:07;;;;;;;19.90;13.60;;;;;;;;;;6203320;23;20005;-78
2021/11/23 10:30:33;;;;;;;16.77;12.25;;;;;;;;;;6201748;23;20016;-77
2021/11/23 10:32:59;;;;;;;17.58;13.00;;;;;;;;;;6199027;23;20032;-78
2021/11/23 10:35:28;;;;;;;15.82;11.98;;;;;;;;;;6221677;23;20097;-78
2021/11/23 10:37:55;;;;;;;17.67;12.23;;;;;;;;;;6224724;23;20009;-79
2021/11/23 10:40:24;;;;;;;17.73;13.90;;;;;;;;;;6199691;23;20000;-78
2021/11/23 10:42:53;;;;;;;19.17;13.13;;;;;;;;;;6224495;23;20016;-78
2021/11/23 10:45:19;;;;;;;18.15;12.05;;;;;;;;;;6199004;23;20008;-78
2021/11/23 10:47:47;;;;;;;17.50;12.50;;;;;;;;;;6224484;23;20011;-78
2021/11/23 10:50:17;;;;;;;17.77;12.40;;;;;;;;;;6226699;23;20032;-78
2021/11/23 10:52:47;;;;;;;16.45;12.07;;;;;;;;;;6224774;23;20101;-78
2021/11/23 10:55:31;;;;;;;17.98;11.25;;;;;;;;;;6199520;23;20354;-78
2021/11/23 10:57:59;;;;;;;27.15;11.02;;;;;;;;;;6226496;23;20030;-77
2021/11/23 11:00:30;;;;;;;15.55;10.95;;;;;;;;;;6309211;22;20008;-78
2021/11/23 11:03:01;;;;;;;17.23;10.48;;;;;;;;;;6349932;22;20324;-77
2021/11/23 11:05:28;;;;;;;17.13;10.90;;;;;;;;;;6346525;22;19998;-78
2021/11/23 11:07:56;;;;;;;15.52;11.70;;;;;;;;;;6348400;22;20435;-78
2021/11/23 11:10:22;;;;;;;17.00;11.82;;;;;;;;;;6288324;22;20341;-77
2021/11/23 11:12:48;;;;;;;18.45;12.57;;;;;;;;;;6317371;22;20019;-77
2021/11/23 11:15:15;;;;;;;18.60;11.77;;;;;;;;;;6318262;22;20004;-77
2021/11/23 11:17:44;;;;;;;18.13;12.20;;;;;;;;;;6289473;22;20111;-77
2021/11/23 11:20:13;;;;;;;19.60;11.13;;;;;;;;;;6317452;22;20078;-77
2021/11/23 11:22:55;;;;;;;16.38;11.75;;;;;;;;;;6317586;22;20107;-77
2021/11/23 11:25:27;;;;;;;19.75;11.73;;;;;;;;;;6316778;22;19999;-78
2021/11/23 11:27:53;;;;;;;18.10;12.32;;;;;;;;;;6290290;22;20007;-77
2021/11/23 11:30:23;;;;;;;19.45;11.25;;;;;;;;;;6290233;22;20014;-78
2021/11/23 11:32:50;;;;;;;18.35;11.18;;;;;;;;;;6318038;22;20003;-78
2021/11/23 11:35:25;;;;;;;14.55;10.05;;;;;;;;;;6315797;22;20006;-77
2021/11/23 11:37:52;;;;;;;16.20;10.25;;;;;;;;;;6316538;22;20433;-77
2021/11/23 11:40:25;;;;;;;15.95;10.02;;;;;;;;;;6316077;22;20303;-77
2021/11/23 11:42:52;;;;;;;18.13;11.13;;;;;;;;;;6316988;22;20005;-78
2021/11/23 11:45:19;;;;;;;15.45;11.13;;;;;;;;;;6316663;22;20027;-77
2021/11/23 11:47:47;;;;;;;18.45;11.57;;;;;;;;;;6288079;22;20007;-77
2021/11/23 11:50:17;;;;;;;17.70;12.00;;;;;;;;;;6315169;22;20038;-76
2021/11/23 11:53:03;;;;;;;14.77;10.60;;;;;;;;;;6315188;22;20034;-77
2021/11/23 11:55:31;;;;;;;11.98;9.45;;;;;;;;;;6285115;22;20132;-77
2021/11/23 11:57:59;;;;;;;14.57;9.95;;;;;;;;;;6312997;22;20003;-75
2021/11/23 12:00:42;;;;;;;13.00;9.88;;;;;;;;;;6315025;22;20073;-77
2021/11/23 12:03:13;;;;;;;13.63;9.33;;;;;;;;;;6324377;22;20329;-77
2021/11/23 12:06:00;;;;;;;13.18;10.05;;;;;;;;;;6297250;22;20023;-76
2021/11/23 12:08:40;;;;;;;14.07;9.98;;;;;;;;;;6334796;22;20014;-78
2021/11/23 12:11:08;;;;;;;15.85;10.68;;;;;;;;;;6358251;22;20003;-78
2021/11/23 12:13:42;;;;;;;14.88;10.50;;;;;;;;;;6330992;22;20596;-78
2021/11/23 12:16:12;;;;;;;15.95;10.50;;;;;;;;;;6360826;22;20474;-78
2021/11/23 12:19:05;;;;;;;15.95;11.43;;;;;;;;;;6358515;22;20007;-76
2021/11/23 12:21:33;;;;;;;14.85;10.85;;;;;;;;;;6359659;22;20006;-77
2021/11/23 12:24:02;;;;;;;21.42;12.23;;;;;;;;;;6360152;22;20024;-79
2021/11/23 12:26:37;;;;;;;20.38;11.93;;;;;;;;;;6308426;22;19995;-79
2021/11/23 12:29:20;;;;;;;20.42;11.88;;;;;;;;;;6360560;22;20486;-76
2021/11/23 12:32:14;;;;;;;30.88;13.80;;;;;;;;;;6353173;22;20070;-78
2021/11/23 12:34:50;;;;;;;20.98;13.07;;;;;;;;;;6345962;22;20310;-73
2021/11/23 12:37:16;;;;;;;17.33;12.48;;;;;;;;;;6317741;22;20010;-77
2021/11/23 12:39:42;;;;;;;19.40;12.38;;;;;;;;;;6347673;22;20009;-77
2021/11/23 12:42:12;;;;;;;19.55;11.85;;;;;;;;;;6324283;22;20063;-75
2021/11/23 12:44:47;;;;;;;16.42;11.45;;;;;;;;;;6346665;22;20048;-76
2021/11/23 12:47:15;;;;;;;16.33;10.88;;;;;;;;;;6345023;22;19994;-78
2021/11/23 12:49:46;;;;;;;17.48;11.35;;;;;;;;;;6318532;22;20015;-77
2021/11/23 12:52:30;;;;;;;16.90;10.65;;;;;;;;;;6331113;22;20432;-69
2021/11/23 12:55:03;;;;;;;18.70;11.23;;;;;;;;;;6259181;22;20005;-70
2021/11/23 12:57:30;;;;;;;14.93;10.63;;;;;;;;;;6361207;22;19995;-74
2021/11/23 13:00:02;;;;;;;12.95;9.98;;;;;;;;;;6360534;22;19995;-74
2021/11/23 13:02:44;;;;;;;15.45;10.15;;;;;;;;;;6350741;22;20013;-76
2021/11/23 13:05:15;;;;;;;15.25;10.70;;;;;;;;;;6353219;22;20013;-71
2021/11/23 13:08:08;;;;;;;18.52;10.05;;;;;;;;;;6355100;22;20013;-79
2021/11/23 13:14:13;;;;;;;15.73;10.20;;;;;;;;;;6361806;22;20007;-80
2021/11/23 13:17:23;;;;;;;14.43;10.27;;;;;;;;;;6328779;22;20003;-74
2021/11/23 13:19:56;;;;;;;14.68;10.55;;;;;;;;;;6201001;23;20025;-76
2021/11/23 13:22:22;;;;;;;16.77;10.43;;;;;;;;;;6186109;23;20008;-76
2021/11/23 13:24:48;;;;;;;16.45;10.27;;;;;;;;;;6184505;23;20019;-76
2021/11/23 13:27:15;;;;;;;13.85;9.50;;;;;;;;;;6187748;23;20051;-76
2021/11/23 13:29:45;;;;;;;14.55;8.55;;;;;;;;;;6163942;23;20009;-78
2021/11/23 13:32:12;;;;;;;18.00;9.25;;;;;;;;;;6165032;23;20009;-77
2021/11/23 13:35:02;;;;;;;12.85;9.20;;;;;;;;;;6205170;23;20013;-72
2021/11/23 13:40:22;;;;;;;14.77;9.50;;;;;;;;;;6363309;22;19942;-76
2021/11/23 13:42:49;;;;;;;15.48;9.07;;;;;;;;;;6339397;22;20014;-73
2021/11/23 13:45:22;;;;;;;12.05;9.10;;;;;;;;;;6324368;22;20421;-72
2021/11/23 13:48:09;;;;;;;12.07;9.15;;;;;;;;;;6318919;22;20006;-74
2021/11/23 13:50:58;;;;;;;15.38;10.20;;;;;;;;;;6326813;22;20015;-79
2021/11/23 13:53:58;;;;;;;12.50;8.52;;;;;;;;;;6316496;22;20007;-77
2021/11/23 13:56:26;;;;;;;13.07;9.27;;;;;;;;;;6319114;22;20029;-76
2021/11/23 13:58:54;;;;;;;16.23;10.35;;;;;;;;;;6319149;22;20003;-76
2021/11/23 14:01:22;;;;;;;15.90;10.32;;;;;;;;;;6312656;22;20014;-77
2021/11/23 14:04:26;;;;;;;15.13;9.40;;;;;;;;;;6319846;22;20010;-76
2021/11/23 14:07:04;;;;;;;16.05;10.50;;;;;;;;;;6283462;22;20433;-75
2021/11/23 14:09:50;;;;;;;14.13;9.18;;;;;;;;;;6263131;22;20208;-76
2021/11/23 14:12:27;;;;;;;14.52;9.43;;;;;;;;;;6288098;22;20072;-75
2021/11/23 14:14:57;;;;;;;15.93;10.40;;;;;;;;;;6287917;22;20019;-76
2021/11/23 14:17:26;;;;;;;13.13;9.27;;;;;;;;;;6284756;22;20014;-78
2021/11/23 14:20:08;;;;;;;18.13;10.30;;;;;;;;;;6280785;22;20526;-79
2021/11/23 14:22:41;;;;;;;15.10;10.55;;;;;;;;;;6279284;22;20065;-77
2021/11/23 14:25:18;;;;;;;16.27;10.90;;;;;;;;;;6284194;22;20011;-78
2021/11/23 14:27:48;;;;;;;14.95;10.02;;;;;;;;;;6272231;22;20000;-79
2021/11/23 14:30:15;;;;;;;13.68;10.02;;;;;;;;;;6297282;22;20015;-75
2021/11/23 14:32:41;;;;;;;14.63;9.82;;;;;;;;;;6328228;22;20079;-75
2021/11/23 14:35:07;;;;;;;14.02;10.07;;;;;;;;;;6317854;22;20486;-75
2021/11/23 14:37:33;;;;;;;13.35;10.00;;;;;;;;;;6314373;22;20003;-75
2021/11/23 14:40:01;;;;;;;13.65;9.50;;;;;;;;;;6341421;22;20091;-78
2021/11/23 14:42:30;;;;;;;16.60;11.13;;;;;;;;;;6351898;22;20015;-78
2021/11/23 14:45:20;;;;;;;16.98;10.80;;;;;;;;;;6336158;22;20064;-77
2021/11/23 14:52:46;;;;;;;18.95;12.35;;;;;;;;;;6352600;22;20010;-78
2021/11/23 14:55:29;;;;;;;19.30;12.53;;;;;;;;;;6338119;22;20005;-78
2021/11/23 15:01:05;;;;;;;22.65;12.68;;;;;;;;;;6237814;23;20119;-78
2021/11/23 15:03:31;;;;;;;21.42;13.98;;;;;;;;;;6224828;23;20008;-75
2021/11/23 15:06:02;;;;;;;25.80;14.15;;;;;;;;;;6204964;23;20040;-76
2021/11/23 15:08:28;;;;;;;20.48;13.32;;;;;;;;;;6169651;23;20011;-74
2021/11/23 15:10:55;;;;;;;21.35;13.82;;;;;;;;;;6190866;23;20104;-74
2021/11/23 15:13:24;;;;;;;23.17;13.70;;;;;;;;;;6159531;23;20499;-74
2021/11/23 15:15:50;;;;;;;23.70;14.50;;;;;;;;;;6185355;23;20009;-74
2021/11/23 15:18:16;;;;;;;23.75;14.20;;;;;;;;;;6160674;23;20057;-77
2021/11/23 15:20:42;;;;;;;25.75;15.48;;;;;;;;;;6163194;23;20001;-74
2021/11/23 15:23:09;;;;;;;23.63;13.95;;;;;;;;;;6161323;23;20431;-75
2021/11/23 15:25:35;;;;;;;24.30;14.50;;;;;;;;;;6184574;23;20005;-74